sensor_id;sensor_type;location;lat;lon;timestamp;P1;durP1;ratioP1;P2;durP2;ratioP2
12707;SDS011;6418;50.824;4.718;2023-06-10T00:00:48;15.85;;;9.88;;
12707;SDS011;6418;50.824;4.718;2023-06-10T00:03:16;15.18;;;9.57;;
12707;SDS011;6418;50.824;4.718;2023-06-10T00:05:44;15.65;;;9.70;;
12707;SDS011;6418;50.824;4.718;2023-06-10T00:08:11;13.73;;;9.85;;
12707;SDS011;6418;50.824;4.718;2023-06-10T00:10:40;15.90;;;10.00;;
12707;SDS011;6418;50.824;4.718;2023-06-10T00:13:07;16.00;;;10.32;;
12707;SDS011;6418;50.824;4.718;2023-06-10T00:15:35;16.55;;;9.82;;
12707;SDS011;6418;50.824;4.718;2023-06-10T00:18:01;15.32;;;9.75;;
12707;SDS011;6418;50.824;4.718;2023-06-10T00:20:29;17.25;;;10.20;;
12707;SDS011;6418;50.824;4.718;2023-06-10T00:22:58;15.30;;;9.70;;
12707;SDS011;6418;50.824;4.718;2023-06-10T00:25:26;15.35;;;9.90;;
12707;SDS011;6418;50.824;4.718;2023-06-10T00:27:53;16.95;;;9.82;;
12707;SDS011;6418;50.824;4.718;2023-06-10T00:30:20;14.80;;;9.60;;
12707;SDS011;6418;50.824;4.718;2023-06-10T00:32:47;16.42;;;9.68;;
12707;SDS011;6418;50.824;4.718;2023-06-10T00:35:14;17.70;;;9.52;;
12707;SDS011;6418;50.824;4.718;2023-06-10T00:37:41;17.50;;;9.88;;
12707;SDS011;6418;50.824;4.718;2023-06-10T00:40:10;16.52;;;10.10;;
12707;SDS011;6418;50.824;4.718;2023-06-10T00:42:37;16.35;;;9.82;;
12707;SDS011;6418;50.824;4.718;2023-06-10T00:45:05;16.25;;;9.57;;
12707;SDS011;6418;50.824;4.718;2023-06-10T00:47:32;14.90;;;9.88;;
12707;SDS011;6418;50.824;4.718;2023-06-10T00:50:00;15.70;;;10.07;;
12707;SDS011;6418;50.824;4.718;2023-06-10T00:52:28;16.75;;;9.93;;
12707;SDS011;6418;50.824;4.718;2023-06-10T00:54:55;15.00;;;9.30;;
12707;SDS011;6418;50.824;4.718;2023-06-10T00:57:25;15.02;;;10.00;;
12707;SDS011;6418;50.824;4.718;2023-06-10T00:59:52;16.92;;;10.07;;
12707;SDS011;6418;50.824;4.718;2023-06-10T01:02:20;14.55;;;9.70;;
12707;SDS011;6418;50.824;4.718;2023-06-10T01:04:47;14.88;;;9.77;;
12707;SDS011;6418;50.824;4.718;2023-06-10T01:07:15;14.65;;;10.13;;
12707;SDS011;6418;50.824;4.718;2023-06-10T01:09:50;17.38;;;10.00;;
12707;SDS011;6418;50.824;4.718;2023-06-10T01:12:29;16.02;;;10.35;;
12707;SDS011;6418;50.824;4.718;2023-06-10T01:14:59;15.50;;;9.85;;
12707;SDS011;6418;50.824;4.718;2023-06-10T01:17:29;16.23;;;10.30;;
12707;SDS011;6418;50.824;4.718;2023-06-10T01:19:56;15.25;;;10.13;;
12707;SDS011;6418;50.824;4.718;2023-06-10T01:22:26;15.25;;;10.20;;
12707;SDS011;6418;50.824;4.718;2023-06-10T01:24:57;16.25;;;10.20;;
12707;SDS011;6418;50.824;4.718;2023-06-10T01:27:25;16.83;;;10.77;;
12707;SDS011;6418;50.824;4.718;2023-06-10T01:29:58;16.52;;;10.60;;
12707;SDS011;6418;50.824;4.718;2023-06-10T01:32:29;15.25;;;9.73;;
12707;SDS011;6418;50.824;4.718;2023-06-10T01:35:01;16.93;;;10.43;;
12707;SDS011;6418;50.824;4.718;2023-06-10T01:37:32;15.77;;;10.07;;
12707;SDS011;6418;50.824;4.718;2023-06-10T01:40:00;16.27;;;10.80;;
12707;SDS011;6418;50.824;4.718;2023-06-10T01:42:31;17.10;;;11.18;;
12707;SDS011;6418;50.824;4.718;2023-06-10T01:44:58;16.45;;;10.32;;
12707;SDS011;6418;50.824;4.718;2023-06-10T01:47:25;17.45;;;10.70;;
12707;SDS011;6418;50.824;4.718;2023-06-10T01:49:52;16.00;;;10.30;;
12707;SDS011;6418;50.824;4.718;2023-06-10T01:52:18;17.73;;;11.05;;
12707;SDS011;6418;50.824;4.718;2023-06-10T01:54:47;15.02;;;11.15;;
12707;SDS011;6418;50.824;4.718;2023-06-10T01:57:14;16.95;;;11.27;;
12707;SDS011;6418;50.824;4.718;2023-06-10T01:59:41;15.98;;;10.93;;
12707;SDS011;6418;50.824;4.718;2023-06-10T02:02:09;15.88;;;11.20;;
12707;SDS011;6418;50.824;4.718;2023-06-10T02:04:36;15.88;;;10.95;;
12707;SDS011;6418;50.824;4.718;2023-06-10T02:07:03;19.85;;;11.20;;
12707;SDS011;6418;50.824;4.718;2023-06-10T02:09:30;19.50;;;11.43;;
12707;SDS011;6418;50.824;4.718;2023-06-10T02:12:01;15.47;;;10.50;;
12707;SDS011;6418;50.824;4.718;2023-06-10T02:14:28;18.70;;;10.90;;
12707;SDS011;6418;50.824;4.718;2023-06-10T02:16:55;15.75;;;10.90;;
12707;SDS011;6418;50.824;4.718;2023-06-10T02:19:22;14.73;;;10.52;;
12707;SDS011;6418;50.824;4.718;2023-06-10T02:21:50;15.70;;;10.82;;
12707;SDS011;6418;50.824;4.718;2023-06-10T02:24:17;19.05;;;11.32;;
12707;SDS011;6418;50.824;4.718;2023-06-10T02:26:44;15.63;;;10.98;;
12707;SDS011;6418;50.824;4.718;2023-06-10T02:29:14;16.67;;;10.95;;
12707;SDS011;6418;50.824;4.718;2023-06-10T02:31:41;15.02;;;10.70;;
12707;SDS011;6418;50.824;4.718;2023-06-10T02:34:08;18.08;;;10.93;;
12707;SDS011;6418;50.824;4.718;2023-06-10T02:36:34;17.15;;;11.20;;
12707;SDS011;6418;50.824;4.718;2023-06-10T02:39:02;15.67;;;11.53;;
12707;SDS011;6418;50.824;4.718;2023-06-10T02:41:29;17.63;;;11.30;;
12707;SDS011;6418;50.824;4.718;2023-06-10T02:43:56;16.43;;;11.80;;
12707;SDS011;6418;50.824;4.718;2023-06-10T02:46:24;18.77;;;11.63;;
12707;SDS011;6418;50.824;4.718;2023-06-10T02:48:53;17.87;;;11.80;;
12707;SDS011;6418;50.824;4.718;2023-06-10T02:51:20;17.20;;;11.80;;
12707;SDS011;6418;50.824;4.718;2023-06-10T02:53:47;14.43;;;11.37;;
12707;SDS011;6418;50.824;4.718;2023-06-10T02:56:15;17.20;;;11.20;;
12707;SDS011;6418;50.824;4.718;2023-06-10T02:58:42;18.23;;;11.73;;
12707;SDS011;6418;50.824;4.718;2023-06-10T03:01:09;16.93;;;12.13;;
12707;SDS011;6418;50.824;4.718;2023-06-10T03:03:37;18.47;;;12.17;;
12707;SDS011;6418;50.824;4.718;2023-06-10T03:06:07;17.63;;;11.63;;
12707;SDS011;6418;50.824;4.718;2023-06-10T03:08:37;16.50;;;12.50;;
12707;SDS011;6418;50.824;4.718;2023-06-10T03:11:04;17.67;;;12.67;;
12707;SDS011;6418;50.824;4.718;2023-06-10T03:13:31;16.67;;;13.10;;
12707;SDS011;6418;50.824;4.718;2023-06-10T03:15:58;17.23;;;12.90;;
12707;SDS011;6418;50.824;4.718;2023-06-10T03:18:25;18.53;;;13.10;;
12707;SDS011;6418;50.824;4.718;2023-06-10T03:20:54;19.70;;;13.77;;
12707;SDS011;6418;50.824;4.718;2023-06-10T03:23:21;18.67;;;13.97;;
12707;SDS011;6418;50.824;4.718;2023-06-10T03:25:49;18.90;;;13.23;;
12707;SDS011;6418;50.824;4.718;2023-06-10T03:28:15;18.23;;;13.10;;
12707;SDS011;6418;50.824;4.718;2023-06-10T03:30:42;19.37;;;13.53;;
12707;SDS011;6418;50.824;4.718;2023-06-10T03:33:09;19.93;;;13.40;;
12707;SDS011;6418;50.824;4.718;2023-06-10T03:35:36;20.80;;;13.47;;
12707;SDS011;6418;50.824;4.718;2023-06-10T03:38:04;17.73;;;12.67;;
12707;SDS011;6418;50.824;4.718;2023-06-10T03:40:31;16.17;;;12.47;;
12707;SDS011;6418;50.824;4.718;2023-06-10T03:42:58;18.93;;;12.90;;
12707;SDS011;6418;50.824;4.718;2023-06-10T03:45:26;21.37;;;13.43;;
12707;SDS011;6418;50.824;4.718;2023-06-10T03:47:54;21.43;;;12.20;;
12707;SDS011;6418;50.824;4.718;2023-06-10T03:50:22;19.67;;;12.47;;
12707;SDS011;6418;50.824;4.718;2023-06-10T03:52:49;18.47;;;12.23;;
12707;SDS011;6418;50.824;4.718;2023-06-10T03:55:18;17.40;;;12.63;;
12707;SDS011;6418;50.824;4.718;2023-06-10T03:57:46;19.73;;;12.57;;
12707;SDS011;6418;50.824;4.718;2023-06-10T04:00:14;18.30;;;12.13;;
12707;SDS011;6418;50.824;4.718;2023-06-10T04:02:42;17.03;;;12.53;;
12707;SDS011;6418;50.824;4.718;2023-06-10T04:05:13;18.53;;;12.97;;
12707;SDS011;6418;50.824;4.718;2023-06-10T04:07:41;19.23;;;12.97;;
12707;SDS011;6418;50.824;4.718;2023-06-10T04:10:09;17.60;;;12.87;;
12707;SDS011;6418;50.824;4.718;2023-06-10T04:12:37;17.80;;;13.43;;
12707;SDS011;6418;50.824;4.718;2023-06-10T04:15:05;18.67;;;12.73;;
12707;SDS011;6418;50.824;4.718;2023-06-10T04:17:33;19.57;;;13.07;;
12707;SDS011;6418;50.824;4.718;2023-06-10T04:20:00;21.30;;;13.47;;
12707;SDS011;6418;50.824;4.718;2023-06-10T04:22:28;19.77;;;12.80;;
12707;SDS011;6418;50.824;4.718;2023-06-10T04:24:55;19.83;;;13.03;;
12707;SDS011;6418;50.824;4.718;2023-06-10T04:27:24;17.47;;;12.80;;
12707;SDS011;6418;50.824;4.718;2023-06-10T04:29:52;21.30;;;13.47;;
12707;SDS011;6418;50.824;4.718;2023-06-10T04:32:19;19.77;;;13.53;;
12707;SDS011;6418;50.824;4.718;2023-06-10T04:34:46;19.73;;;13.27;;
12707;SDS011;6418;50.824;4.718;2023-06-10T04:37:13;17.87;;;12.73;;
12707;SDS011;6418;50.824;4.718;2023-06-10T04:39:40;18.20;;;12.70;;
12707;SDS011;6418;50.824;4.718;2023-06-10T04:42:07;17.67;;;13.10;;
12707;SDS011;6418;50.824;4.718;2023-06-10T04:44:34;20.83;;;13.87;;
12707;SDS011;6418;50.824;4.718;2023-06-10T04:47:02;19.33;;;13.07;;
12707;SDS011;6418;50.824;4.718;2023-06-10T04:49:30;20.33;;;13.40;;
12707;SDS011;6418;50.824;4.718;2023-06-10T04:51:57;21.43;;;13.80;;
12707;SDS011;6418;50.824;4.718;2023-06-10T04:54:25;20.87;;;14.00;;
12707;SDS011;6418;50.824;4.718;2023-06-10T04:56:52;20.67;;;13.87;;
12707;SDS011;6418;50.824;4.718;2023-06-10T04:59:19;17.63;;;13.23;;
12707;SDS011;6418;50.824;4.718;2023-06-10T05:01:46;18.07;;;14.13;;
12707;SDS011;6418;50.824;4.718;2023-06-10T05:04:14;20.97;;;13.87;;
12707;SDS011;6418;50.824;4.718;2023-06-10T05:06:41;20.83;;;14.37;;
12707;SDS011;6418;50.824;4.718;2023-06-10T05:09:08;19.67;;;13.43;;
12707;SDS011;6418;50.824;4.718;2023-06-10T05:11:35;18.93;;;14.07;;
12707;SDS011;6418;50.824;4.718;2023-06-10T05:14:02;18.07;;;13.63;;
12707;SDS011;6418;50.824;4.718;2023-06-10T05:16:29;19.07;;;14.17;;
12707;SDS011;6418;50.824;4.718;2023-06-10T05:18:56;18.53;;;13.93;;
12707;SDS011;6418;50.824;4.718;2023-06-10T05:21:24;17.50;;;13.97;;
12707;SDS011;6418;50.824;4.718;2023-06-10T05:23:51;18.47;;;14.10;;
12707;SDS011;6418;50.824;4.718;2023-06-10T05:26:18;18.50;;;13.27;;
12707;SDS011;6418;50.824;4.718;2023-06-10T05:28:45;19.60;;;13.07;;
12707;SDS011;6418;50.824;4.718;2023-06-10T05:31:12;18.37;;;12.23;;
12707;SDS011;6418;50.824;4.718;2023-06-10T05:33:39;20.20;;;13.17;;
12707;SDS011;6418;50.824;4.718;2023-06-10T05:36:06;16.73;;;11.93;;
12707;SDS011;6418;50.824;4.718;2023-06-10T05:38:34;19.10;;;13.27;;
12707;SDS011;6418;50.824;4.718;2023-06-10T05:41:01;17.57;;;12.60;;
12707;SDS011;6418;50.824;4.718;2023-06-10T05:43:28;18.77;;;12.87;;
12707;SDS011;6418;50.824;4.718;2023-06-10T05:45:55;18.53;;;12.93;;
12707;SDS011;6418;50.824;4.718;2023-06-10T05:48:22;19.87;;;13.77;;
12707;SDS011;6418;50.824;4.718;2023-06-10T05:50:49;18.25;;;12.82;;
12707;SDS011;6418;50.824;4.718;2023-06-10T05:53:16;16.70;;;12.83;;
12707;SDS011;6418;50.824;4.718;2023-06-10T05:55:45;20.45;;;12.57;;
12707;SDS011;6418;50.824;4.718;2023-06-10T05:58:13;16.85;;;12.77;;
12707;SDS011;6418;50.824;4.718;2023-06-10T06:00:40;16.88;;;12.98;;
12707;SDS011;6418;50.824;4.718;2023-06-10T06:03:07;31.35;;;13.82;;
12707;SDS011;6418;50.824;4.718;2023-06-10T06:05:35;19.88;;;13.10;;
12707;SDS011;6418;50.824;4.718;2023-06-10T06:08:03;18.60;;;13.40;;
12707;SDS011;6418;50.824;4.718;2023-06-10T06:10:30;18.30;;;13.00;;
12707;SDS011;6418;50.824;4.718;2023-06-10T06:12:59;20.05;;;13.35;;
12707;SDS011;6418;50.824;4.718;2023-06-10T06:15:26;19.30;;;13.13;;
12707;SDS011;6418;50.824;4.718;2023-06-10T06:17:53;21.05;;;13.13;;
12707;SDS011;6418;50.824;4.718;2023-06-10T06:20:20;18.33;;;13.18;;
12707;SDS011;6418;50.824;4.718;2023-06-10T06:22:48;18.92;;;13.52;;
12707;SDS011;6418;50.824;4.718;2023-06-10T06:25:15;19.52;;;12.90;;
12707;SDS011;6418;50.824;4.718;2023-06-10T06:27:42;17.17;;;12.77;;
12707;SDS011;6418;50.824;4.718;2023-06-10T06:30:10;18.70;;;12.90;;
12707;SDS011;6418;50.824;4.718;2023-06-10T06:32:38;20.42;;;13.00;;
12707;SDS011;6418;50.824;4.718;2023-06-10T06:35:05;19.35;;;12.60;;
12707;SDS011;6418;50.824;4.718;2023-06-10T06:37:33;19.25;;;12.15;;
12707;SDS011;6418;50.824;4.718;2023-06-10T06:40:00;18.35;;;12.65;;
12707;SDS011;6418;50.824;4.718;2023-06-10T06:42:28;19.17;;;12.82;;
12707;SDS011;6418;50.824;4.718;2023-06-10T06:44:54;18.35;;;12.50;;
12707;SDS011;6418;50.824;4.718;2023-06-10T06:47:23;20.63;;;12.18;;
12707;SDS011;6418;50.824;4.718;2023-06-10T06:49:50;19.02;;;12.30;;
12707;SDS011;6418;50.824;4.718;2023-06-10T06:52:16;18.83;;;12.00;;
12707;SDS011;6418;50.824;4.718;2023-06-10T06:54:44;17.20;;;12.18;;
12707;SDS011;6418;50.824;4.718;2023-06-10T06:57:10;17.40;;;11.70;;
12707;SDS011;6418;50.824;4.718;2023-06-10T06:59:37;20.13;;;11.77;;
12707;SDS011;6418;50.824;4.718;2023-06-10T07:02:04;18.10;;;12.10;;
12707;SDS011;6418;50.824;4.718;2023-06-10T07:04:33;17.52;;;11.88;;
12707;SDS011;6418;50.824;4.718;2023-06-10T07:07:00;16.67;;;10.63;;
12707;SDS011;6418;50.824;4.718;2023-06-10T07:09:27;19.60;;;10.88;;
12707;SDS011;6418;50.824;4.718;2023-06-10T07:11:54;15.80;;;11.20;;
12707;SDS011;6418;50.824;4.718;2023-06-10T07:14:21;17.98;;;11.02;;
12707;SDS011;6418;50.824;4.718;2023-06-10T07:16:48;14.98;;;10.68;;
12707;SDS011;6418;50.824;4.718;2023-06-10T07:19:15;17.13;;;10.57;;
12707;SDS011;6418;50.824;4.718;2023-06-10T07:21:43;16.23;;;10.48;;
12707;SDS011;6418;50.824;4.718;2023-06-10T07:24:10;15.65;;;10.73;;
12707;SDS011;6418;50.824;4.718;2023-06-10T07:26:37;15.57;;;11.02;;
12707;SDS011;6418;50.824;4.718;2023-06-10T07:29:03;16.30;;;10.73;;
12707;SDS011;6418;50.824;4.718;2023-06-10T07:31:30;18.23;;;10.38;;
12707;SDS011;6418;50.824;4.718;2023-06-10T07:33:57;16.80;;;10.15;;
12707;SDS011;6418;50.824;4.718;2023-06-10T07:36:24;15.95;;;10.40;;
12707;SDS011;6418;50.824;4.718;2023-06-10T07:38:54;17.83;;;10.45;;
12707;SDS011;6418;50.824;4.718;2023-06-10T07:41:22;16.85;;;9.90;;
12707;SDS011;6418;50.824;4.718;2023-06-10T07:43:50;16.48;;;10.13;;
12707;SDS011;6418;50.824;4.718;2023-06-10T07:46:20;17.17;;;9.90;;
12707;SDS011;6418;50.824;4.718;2023-06-10T07:48:47;14.70;;;9.90;;
12707;SDS011;6418;50.824;4.718;2023-06-10T07:51:14;16.23;;;10.82;;
12707;SDS011;6418;50.824;4.718;2023-06-10T07:53:42;14.65;;;10.20;;
12707;SDS011;6418;50.824;4.718;2023-06-10T07:56:10;14.25;;;9.93;;
12707;SDS011;6418;50.824;4.718;2023-06-10T07:58:37;17.67;;;10.43;;
12707;SDS011;6418;50.824;4.718;2023-06-10T08:01:04;16.17;;;10.63;;
12707;SDS011;6418;50.824;4.718;2023-06-10T08:03:32;16.48;;;9.77;;
12707;SDS011;6418;50.824;4.718;2023-06-10T08:05:59;16.83;;;9.73;;
12707;SDS011;6418;50.824;4.718;2023-06-10T08:08:26;16.48;;;10.05;;
12707;SDS011;6418;50.824;4.718;2023-06-10T08:10:53;16.58;;;9.85;;
12707;SDS011;6418;50.824;4.718;2023-06-10T08:13:21;14.10;;;9.13;;
12707;SDS011;6418;50.824;4.718;2023-06-10T08:15:48;14.73;;;9.35;;
12707;SDS011;6418;50.824;4.718;2023-06-10T08:18:15;15.93;;;9.88;;
12707;SDS011;6418;50.824;4.718;2023-06-10T08:20:42;15.25;;;9.13;;
12707;SDS011;6418;50.824;4.718;2023-06-10T08:23:09;16.30;;;9.15;;
12707;SDS011;6418;50.824;4.718;2023-06-10T08:25:36;15.68;;;9.20;;
12707;SDS011;6418;50.824;4.718;2023-06-10T08:28:03;13.98;;;9.10;;
12707;SDS011;6418;50.824;4.718;2023-06-10T08:30:31;16.15;;;8.93;;
12707;SDS011;6418;50.824;4.718;2023-06-10T08:32:58;14.60;;;8.93;;
12707;SDS011;6418;50.824;4.718;2023-06-10T08:35:25;14.55;;;8.77;;
12707;SDS011;6418;50.824;4.718;2023-06-10T08:37:52;15.38;;;8.75;;
12707;SDS011;6418;50.824;4.718;2023-06-10T08:40:19;14.73;;;8.85;;
12707;SDS011;6418;50.824;4.718;2023-06-10T08:42:48;14.43;;;8.48;;
12707;SDS011;6418;50.824;4.718;2023-06-10T08:45:24;14.25;;;8.65;;
12707;SDS011;6418;50.824;4.718;2023-06-10T08:47:57;15.02;;;8.85;;
12707;SDS011;6418;50.824;4.718;2023-06-10T08:50:26;15.35;;;9.05;;
12707;SDS011;6418;50.824;4.718;2023-06-10T08:52:57;12.93;;;8.10;;
12707;SDS011;6418;50.824;4.718;2023-06-10T08:55:27;15.00;;;9.23;;
12707;SDS011;6418;50.824;4.718;2023-06-10T08:57:58;13.88;;;8.00;;
12707;SDS011;6418;50.824;4.718;2023-06-10T09:00:26;14.55;;;8.40;;
12707;SDS011;6418;50.824;4.718;2023-06-10T09:02:53;13.07;;;8.45;;
12707;SDS011;6418;50.824;4.718;2023-06-10T09:05:22;12.95;;;8.15;;
12707;SDS011;6418;50.824;4.718;2023-06-10T09:07:50;13.02;;;7.72;;
12707;SDS011;6418;50.824;4.718;2023-06-10T09:10:19;13.02;;;7.53;;
12707;SDS011;6418;50.824;4.718;2023-06-10T09:12:46;13.20;;;7.97;;
12707;SDS011;6418;50.824;4.718;2023-06-10T09:15:13;12.93;;;8.00;;
12707;SDS011;6418;50.824;4.718;2023-06-10T09:17:42;12.73;;;8.23;;
12707;SDS011;6418;50.824;4.718;2023-06-10T09:20:10;13.73;;;7.50;;
12707;SDS011;6418;50.824;4.718;2023-06-10T09:22:40;13.20;;;8.40;;
12707;SDS011;6418;50.824;4.718;2023-06-10T09:25:08;14.07;;;8.20;;
12707;SDS011;6418;50.824;4.718;2023-06-10T09:27:43;13.70;;;7.97;;
12707;SDS011;6418;50.824;4.718;2023-06-10T09:30:21;14.13;;;8.10;;
12707;SDS011;6418;50.824;4.718;2023-06-10T09:32:51;15.20;;;8.45;;
12707;SDS011;6418;50.824;4.718;2023-06-10T09:35:21;14.30;;;8.68;;
12707;SDS011;6418;50.824;4.718;2023-06-10T09:37:51;14.65;;;7.95;;
12707;SDS011;6418;50.824;4.718;2023-06-10T09:40:18;12.95;;;8.20;;
12707;SDS011;6418;50.824;4.718;2023-06-10T09:42:45;13.27;;;8.68;;
12707;SDS011;6418;50.824;4.718;2023-06-10T09:45:14;12.75;;;8.27;;
12707;SDS011;6418;50.824;4.718;2023-06-10T09:47:41;17.10;;;8.75;;
12707;SDS011;6418;50.824;4.718;2023-06-10T09:50:08;13.75;;;8.80;;
12707;SDS011;6418;50.824;4.718;2023-06-10T09:52:36;14.93;;;8.25;;
12707;SDS011;6418;50.824;4.718;2023-06-10T09:55:07;16.05;;;8.88;;
12707;SDS011;6418;50.824;4.718;2023-06-10T09:57:36;14.75;;;8.35;;
12707;SDS011;6418;50.824;4.718;2023-06-10T10:00:04;14.27;;;8.32;;
12707;SDS011;6418;50.824;4.718;2023-06-10T10:02:32;14.63;;;8.70;;
12707;SDS011;6418;50.824;4.718;2023-06-10T10:05:12;13.77;;;8.52;;
12707;SDS011;6418;50.824;4.718;2023-06-10T10:07:40;16.45;;;8.38;;
12707;SDS011;6418;50.824;4.718;2023-06-10T10:10:08;14.65;;;8.80;;
12707;SDS011;6418;50.824;4.718;2023-06-10T10:12:36;16.40;;;8.90;;
12707;SDS011;6418;50.824;4.718;2023-06-10T10:15:05;12.57;;;8.10;;
12707;SDS011;6418;50.824;4.718;2023-06-10T10:17:34;13.63;;;8.35;;
12707;SDS011;6418;50.824;4.718;2023-06-10T10:20:04;12.98;;;8.35;;
12707;SDS011;6418;50.824;4.718;2023-06-10T10:22:35;12.60;;;8.52;;
12707;SDS011;6418;50.824;4.718;2023-06-10T10:25:05;14.65;;;8.70;;
12707;SDS011;6418;50.824;4.718;2023-06-10T10:27:39;13.95;;;8.70;;
12707;SDS011;6418;50.824;4.718;2023-06-10T10:30:10;18.90;;;8.60;;
12707;SDS011;6418;50.824;4.718;2023-06-10T10:32:43;16.35;;;8.57;;
12707;SDS011;6418;50.824;4.718;2023-06-10T10:35:19;17.33;;;8.63;;
12707;SDS011;6418;50.824;4.718;2023-06-10T10:37:48;13.73;;;8.27;;
12707;SDS011;6418;50.824;4.718;2023-06-10T10:40:17;14.68;;;8.27;;
12707;SDS011;6418;50.824;4.718;2023-06-10T10:42:44;13.27;;;8.40;;
12707;SDS011;6418;50.824;4.718;2023-06-10T10:45:16;14.48;;;8.32;;
12707;SDS011;6418;50.824;4.718;2023-06-10T10:47:48;13.15;;;8.57;;
12707;SDS011;6418;50.824;4.718;2023-06-10T10:50:19;13.88;;;8.48;;
12707;SDS011;6418;50.824;4.718;2023-06-10T10:52:51;12.48;;;8.10;;
12707;SDS011;6418;50.824;4.718;2023-06-10T10:55:21;14.88;;;8.27;;
12707;SDS011;6418;50.824;4.718;2023-06-10T10:57:53;13.77;;;7.82;;
12707;SDS011;6418;50.824;4.718;2023-06-10T11:00:27;13.80;;;8.02;;
12707;SDS011;6418;50.824;4.718;2023-06-10T11:03:00;16.45;;;8.30;;
12707;SDS011;6418;50.824;4.718;2023-06-10T11:05:32;11.75;;;7.53;;
12707;SDS011;6418;50.824;4.718;2023-06-10T11:08:03;12.55;;;7.85;;
12707;SDS011;6418;50.824;4.718;2023-06-10T11:10:32;13.57;;;7.68;;
12707;SDS011;6418;50.824;4.718;2023-06-10T11:13:00;13.38;;;7.43;;
12707;SDS011;6418;50.824;4.718;2023-06-10T11:15:32;13.43;;;7.55;;
12707;SDS011;6418;50.824;4.718;2023-06-10T11:18:07;12.50;;;7.50;;
12707;SDS011;6418;50.824;4.718;2023-06-10T11:20:42;14.98;;;7.60;;
12707;SDS011;6418;50.824;4.718;2023-06-10T11:23:24;11.68;;;7.18;;
12707;SDS011;6418;50.824;4.718;2023-06-10T11:26:03;14.05;;;7.40;;
12707;SDS011;6418;50.824;4.718;2023-06-10T11:29:06;13.07;;;7.68;;
12707;SDS011;6418;50.824;4.718;2023-06-10T11:31:48;12.23;;;7.30;;
12707;SDS011;6418;50.824;4.718;2023-06-10T11:34:21;13.32;;;8.02;;
12707;SDS011;6418;50.824;4.718;2023-06-10T11:36:52;13.07;;;7.35;;
12707;SDS011;6418;50.824;4.718;2023-06-10T11:39:20;14.60;;;7.60;;
12707;SDS011;6418;50.824;4.718;2023-06-10T11:41:54;14.32;;;7.63;;
12707;SDS011;6418;50.824;4.718;2023-06-10T11:44:21;13.32;;;7.82;;
12707;SDS011;6418;50.824;4.718;2023-06-10T11:46:55;16.98;;;7.50;;
12707;SDS011;6418;50.824;4.718;2023-06-10T11:49:23;14.55;;;7.68;;
12707;SDS011;6418;50.824;4.718;2023-06-10T11:51:50;13.02;;;7.05;;
12707;SDS011;6418;50.824;4.718;2023-06-10T11:54:17;13.73;;;7.05;;
12707;SDS011;6418;50.824;4.718;2023-06-10T11:56:44;12.13;;;7.40;;
12707;SDS011;6418;50.824;4.718;2023-06-10T11:59:13;14.02;;;7.13;;
12707;SDS011;6418;50.824;4.718;2023-06-10T12:01:42;13.85;;;7.32;;
12707;SDS011;6418;50.824;4.718;2023-06-10T12:04:14;12.15;;;7.28;;
12707;SDS011;6418;50.824;4.718;2023-06-10T12:06:44;12.73;;;7.13;;
12707;SDS011;6418;50.824;4.718;2023-06-10T12:09:21;12.80;;;7.35;;
12707;SDS011;6418;50.824;4.718;2023-06-10T12:11:51;13.30;;;6.88;;
12707;SDS011;6418;50.824;4.718;2023-06-10T12:17:20;12.30;;;7.65;;
12707;SDS011;6418;50.824;4.718;2023-06-10T12:19:48;14.27;;;7.85;;
12707;SDS011;6418;50.824;4.718;2023-06-10T12:22:15;12.55;;;7.50;;
12707;SDS011;6418;50.824;4.718;2023-06-10T12:24:44;14.70;;;7.90;;
12707;SDS011;6418;50.824;4.718;2023-06-10T12:27:11;12.23;;;7.43;;
12707;SDS011;6418;50.824;4.718;2023-06-10T12:29:39;13.35;;;7.20;;
12707;SDS011;6418;50.824;4.718;2023-06-10T12:32:18;11.75;;;7.30;;
12707;SDS011;6418;50.824;4.718;2023-06-10T12:34:45;12.30;;;6.88;;
12707;SDS011;6418;50.824;4.718;2023-06-10T12:37:12;11.48;;;6.72;;
12707;SDS011;6418;50.824;4.718;2023-06-10T12:39:40;15.18;;;7.13;;
12707;SDS011;6418;50.824;4.718;2023-06-10T12:42:08;12.57;;;7.10;;
12707;SDS011;6418;50.824;4.718;2023-06-10T12:44:39;15.70;;;7.30;;
12707;SDS011;6418;50.824;4.718;2023-06-10T12:47:09;13.10;;;7.30;;
12707;SDS011;6418;50.824;4.718;2023-06-10T12:49:39;12.57;;;6.97;;
12707;SDS011;6418;50.824;4.718;2023-06-10T12:52:06;12.93;;;7.50;;
12707;SDS011;6418;50.824;4.718;2023-06-10T12:54:33;14.68;;;7.07;;
12707;SDS011;6418;50.824;4.718;2023-06-10T12:57:00;14.02;;;7.15;;
12707;SDS011;6418;50.824;4.718;2023-06-10T12:59:28;16.83;;;7.55;;
12707;SDS011;6418;50.824;4.718;2023-06-10T13:01:56;11.38;;;7.40;;
12707;SDS011;6418;50.824;4.718;2023-06-10T13:04:23;13.85;;;7.20;;
12707;SDS011;6418;50.824;4.718;2023-06-10T13:06:51;15.68;;;7.10;;
12707;SDS011;6418;50.824;4.718;2023-06-10T13:09:18;12.38;;;7.00;;
12707;SDS011;6418;50.824;4.718;2023-06-10T13:11:45;13.63;;;7.22;;
12707;SDS011;6418;50.824;4.718;2023-06-10T13:14:12;13.20;;;6.90;;
12707;SDS011;6418;50.824;4.718;2023-06-10T13:16:39;12.05;;;7.40;;
12707;SDS011;6418;50.824;4.718;2023-06-10T13:19:06;14.65;;;7.13;;
12707;SDS011;6418;50.824;4.718;2023-06-10T13:21:33;11.13;;;6.97;;
12707;SDS011;6418;50.824;4.718;2023-06-10T13:24:02;12.63;;;7.13;;
12707;SDS011;6418;50.824;4.718;2023-06-10T13:26:29;12.05;;;6.72;;
12707;SDS011;6418;50.824;4.718;2023-06-10T13:28:55;13.70;;;7.22;;
12707;SDS011;6418;50.824;4.718;2023-06-10T13:31:22;11.82;;;7.00;;
12707;SDS011;6418;50.824;4.718;2023-06-10T13:33:49;12.23;;;7.15;;
12707;SDS011;6418;50.824;4.718;2023-06-10T13:36:16;15.70;;;7.45;;
12707;SDS011;6418;50.824;4.718;2023-06-10T13:38:43;14.77;;;6.97;;
12707;SDS011;6418;50.824;4.718;2023-06-10T13:41:11;13.07;;;7.35;;
12707;SDS011;6418;50.824;4.718;2023-06-10T13:43:39;14.00;;;7.15;;
12707;SDS011;6418;50.824;4.718;2023-06-10T13:46:05;11.88;;;6.82;;
12707;SDS011;6418;50.824;4.718;2023-06-10T13:48:32;15.85;;;7.30;;
12707;SDS011;6418;50.824;4.718;2023-06-10T13:51:00;13.05;;;7.30;;
12707;SDS011;6418;50.824;4.718;2023-06-10T13:53:27;14.60;;;7.32;;
12707;SDS011;6418;50.824;4.718;2023-06-10T13:55:54;13.00;;;6.85;;
12707;SDS011;6418;50.824;4.718;2023-06-10T13:58:22;11.25;;;6.70;;
12707;SDS011;6418;50.824;4.718;2023-06-10T14:00:49;16.20;;;7.15;;
12707;SDS011;6418;50.824;4.718;2023-06-10T14:03:16;13.10;;;6.93;;
12707;SDS011;6418;50.824;4.718;2023-06-10T14:05:42;16.20;;;7.22;;
12707;SDS011;6418;50.824;4.718;2023-06-10T14:08:10;17.17;;;6.90;;
12707;SDS011;6418;50.824;4.718;2023-06-10T14:10:37;11.85;;;7.10;;
12707;SDS011;6418;50.824;4.718;2023-06-10T14:13:03;13.50;;;7.00;;
12707;SDS011;6418;50.824;4.718;2023-06-10T14:15:32;12.02;;;6.97;;
12707;SDS011;6418;50.824;4.718;2023-06-10T14:17:59;13.13;;;6.80;;
12707;SDS011;6418;50.824;4.718;2023-06-10T14:20:26;14.57;;;7.18;;
12707;SDS011;6418;50.824;4.718;2023-06-10T14:22:56;12.00;;;6.55;;
12707;SDS011;6418;50.824;4.718;2023-06-10T14:25:23;12.80;;;6.53;;
12707;SDS011;6418;50.824;4.718;2023-06-10T14:27:50;13.27;;;7.18;;
12707;SDS011;6418;50.824;4.718;2023-06-10T14:30:17;11.85;;;7.25;;
12707;SDS011;6418;50.824;4.718;2023-06-10T14:32:45;11.82;;;6.78;;
12707;SDS011;6418;50.824;4.718;2023-06-10T14:35:12;12.38;;;7.47;;
12707;SDS011;6418;50.824;4.718;2023-06-10T14:37:39;12.90;;;6.93;;
12707;SDS011;6418;50.824;4.718;2023-06-10T14:40:06;13.88;;;7.20;;
12707;SDS011;6418;50.824;4.718;2023-06-10T14:42:34;12.10;;;6.93;;
12707;SDS011;6418;50.824;4.718;2023-06-10T14:45:01;13.27;;;6.97;;
12707;SDS011;6418;50.824;4.718;2023-06-10T14:47:28;12.15;;;6.60;;
12707;SDS011;6418;50.824;4.718;2023-06-10T14:49:56;14.98;;;7.50;;